Time;durP1;ratioP1;P1;durP2;ratioP2;P2;SDS_P1;SDS_P2;PMS_P1;PMS_P2;Temp;Humidity;BMP_temperature;BMP_pressure;BME280_temperature;BME280_humidity;BME280_pressure;Samples;Min_cycle;Max_cycle;Signal;HPM_P1;HPM_P2
2023/03/06 00:00:34;;;;;;;2.72;0.95;;;3.10;37.10;;;;;;25642791;23;20021;-42
2023/03/06 00:10:35;;;;;;;2.65;1.10;;;3.20;41.70;;;;;;25647923;23;20432;-42
2023/03/06 00:20:39;;;;;;;2.17;0.88;;;3.10;38.30;;;;;;25645864;23;20331;-42
2023/03/06 00:30:40;;;;;;;2.88;1.50;;;3.00;44.00;;;;;;25621682;23;20043;-41
2023/03/06 00:40:42;;;;;;;3.03;1.35;;;3.00;45.80;;;;;;25650212;23;20398;-42
2023/03/06 00:50:43;;;;;;;3.28;1.90;;;2.90;49.50;;;;;;25642820;23;20374;-42
2023/03/06 01:00:44;;;;;;;4.32;2.20;;;2.90;57.20;;;;;;25655645;23;20025;-42
2023/03/06 01:10:45;;;;;;;6.88;3.05;;;2.90;60.40;;;;;;25649299;23;20019;-42
2023/03/06 01:20:47;;;;;;;4.78;1.98;;;3.00;55.80;;;;;;25649977;23;20020;-41
2023/03/06 01:30:48;;;;;;;3.63;2.13;;;3.00;53.30;;;;;;25651976;23;20014;-42
2023/03/06 01:40:49;;;;;;;3.72;2.03;;;2.90;53.80;;;;;;25647052;23;20397;-42
2023/03/06 01:50:53;;;;;;;6.45;3.15;;;2.80;52.70;;;;;;25645725;23;20016;-42
2023/03/06 02:00:54;;;;;;;4.03;1.95;;;2.60;50.40;;;;;;25645111;23;20078;-42
2023/03/06 02:11:16;;;;;;;3.58;1.85;;;2.60;53.20;;;;;;25634036;23;20043;-42
2023/03/06 02:21:24;;;;;;;4.60;2.53;;;2.50;53.30;;;;;;25644171;23;20027;-41
2023/03/06 02:31:29;;;;;;;6.05;2.97;;;2.40;63.70;;;;;;25650272;23;20358;-42
2023/03/06 02:41:31;;;;;;;2.75;1.50;;;2.50;79.10;;;;;;25642953;23;20024;-42
2023/03/06 02:51:33;;;;;;;4.93;2.35;;;2.70;86.30;;;;;;25642349;23;20439;-42
2023/03/06 03:01:34;;;;;;;2.95;1.55;;;2.80;91.70;;;;;;25644019;23;20017;-41
2023/03/06 03:11:35;;;;;;;2.88;1.10;;;2.80;81.40;;;;;;25665162;23;20013;-42
2023/03/06 03:21:37;;;;;;;2.15;1.33;;;2.90;77.10;;;;;;25642751;23;20012;-42
2023/03/06 03:31:38;;;;;;;4.20;1.65;;;3.00;70.80;;;;;;25646084;23;20019;-42
2023/03/06 03:41:40;;;;;;;6.15;1.58;;;3.00;66.20;;;;;;25651962;23;20575;-42
2023/03/06 03:51:41;;;;;;;8.65;2.22;;;3.10;62.70;;;;;;25639304;23;20582;-42
2023/03/06 04:01:43;;;;;;;3.55;1.40;;;3.20;52.30;;;;;;25650958;23;20023;-42
2023/03/06 04:11:44;;;;;;;3.42;1.25;;;3.30;52.00;;;;;;25661594;23;20016;-42
2023/03/06 04:22:05;;;;;;;2.92;0.80;;;3.20;58.70;;;;;;25676953;23;20017;-41
2023/03/06 04:32:26;;;;;;;2.00;0.98;;;3.50;57.80;;;;;;25678289;23;20055;-41
2023/03/06 04:42:47;;;;;;;1.42;0.60;;;3.40;61.10;;;;;;25673445;23;20079;-41
2023/03/06 04:53:09;;;;;;;1.50;1.05;;;3.10;86.80;;;;;;25676421;23;20020;-41
2023/03/06 05:03:31;;;;;;;2.47;1.15;;;3.10;99.90;;;;;;25677589;23;20079;-41
2023/03/06 05:13:52;;;;;;;1.45;0.38;;;3.10;99.90;;;;;;25674397;23;20422;-40
2023/03/06 05:24:12;;;;;;;1.13;0.65;;;3.10;99.90;;;;;;25675965;23;20048;-41
2023/03/06 05:34:34;;;;;;;1.25;0.52;;;3.20;99.90;;;;;;25678554;23;20128;-41
2023/03/06 05:44:55;;;;;;;1.70;0.75;;;3.20;99.90;;;;;;25672551;23;20016;-41
2023/03/06 05:55:18;;;;;;;1.00;0.43;;;3.10;99.90;;;;;;25672790;23;20013;-41
2023/03/06 06:05:39;;;;;;;0.75;0.45;;;3.00;99.90;;;;;;25676695;23;20102;-41
2023/03/06 06:16:14;;;;;;;1.33;0.85;;;3.00;99.90;;;;;;25680846;23;20518;-41
2023/03/06 06:26:35;;;;;;;1.27;0.80;;;2.90;99.90;;;;;;25680386;23;20107;-41
2023/03/06 06:36:56;;;;;;;0.98;0.68;;;2.90;99.90;;;;;;25674043;23;20024;-41
2023/03/06 06:47:17;;;;;;;1.80;0.68;;;2.90;99.90;;;;;;25678159;23;20012;-41
2023/03/06 06:57:40;;;;;;;0.88;0.30;;;2.90;99.90;;;;;;25673802;23;20076;-41
2023/03/06 07:08:01;;;;;;;0.52;0.15;;;2.90;99.90;;;;;;25673930;23;20515;-41
2023/03/06 07:18:22;;;;;;;0.85;0.25;;;2.90;99.90;;;;;;25677471;23;20004;-41
2023/03/06 07:28:44;;;;;;;0.70;0.40;;;3.00;99.90;;;;;;25676900;23;20438;-41
2023/03/06 07:39:06;;;;;;;0.47;0.20;;;3.00;99.90;;;;;;25678061;23;20055;-41
2023/03/06 07:49:27;;;;;;;1.35;0.35;;;3.10;99.90;;;;;;25679061;23;20048;-41
2023/03/06 07:59:48;;;;;;;1.95;0.63;;;3.20;99.90;;;;;;25674355;23;20342;-41
2023/03/06 08:10:12;;;;;;;1.67;0.68;;;3.40;99.90;;;;;;25674052;23;20021;-41
2023/03/06 08:20:33;;;;;;;0.50;0.17;;;3.50;99.90;;;;;;25682041;23;20520;-41
2023/03/06 08:30:55;;;;;;;1.85;0.60;;;3.70;99.90;;;;;;25688868;23;20012;-41
2023/03/06 08:41:16;;;;;;;0.70;0.35;;;3.80;99.90;;;;;;25686331;23;20485;-41
2023/03/06 08:51:37;;;;;;;0.80;0.20;;;3.90;99.90;;;;;;25690219;23;20071;-41
2023/03/06 09:01:58;;;;;;;1.33;0.70;;;4.20;99.90;;;;;;25689337;23;20122;-41
2023/03/06 09:12:19;;;;;;;0.63;0.10;;;4.60;99.90;;;;;;25688566;23;20017;-41
2023/03/06 09:22:41;;;;;;;0.43;0.40;;;5.00;36.50;;;;;;25689028;23;20079;-41
2023/03/06 09:33:02;;;;;;;0.55;0.28;;;5.20;17.90;;;;;;25688927;23;20601;-41
2023/03/06 09:43:38;;;;;;;0.73;0.13;;;5.30;5.70;;;;;;25688677;23;20021;-41
2023/03/06 09:54:22;;;;;;;0.00;0.00;;;5.20;2.70;;;;;;25679482;23;20381;-41
2023/03/06 10:04:49;;;;;;;0.90;0.35;;;5.50;1.00;;;;;;25679970;23;20016;-42
2023/03/06 10:15:30;;;;;;;0.05;0.05;;;5.70;1.00;;;;;;25686989;23;20086;-41
2023/03/06 10:26:05;;;;;;;0.98;0.30;;;5.80;1.00;;;;;;25687498;23;20386;-41
2023/03/06 10:36:28;;;;;;;0.45;0.15;;;5.90;1.00;;;;;;25688746;23;20028;-41
2023/03/06 10:46:51;;;;;;;0.45;0.15;;;6.50;1.00;;;;;;25684930;23;20273;-42
2023/03/06 10:57:30;;;;;;;1.35;0.80;;;6.60;1.00;;;;;;25678150;23;20079;-42
2023/03/06 11:07:54;;;;;;;1.73;0.70;;;7.00;1.00;;;;;;25684526;23;20496;-42
2023/03/06 11:18:33;;;;;;;0.82;0.30;;;7.20;1.00;;;;;;25667921;23;20043;-42
2023/03/06 11:28:48;;;;;;;5.55;1.75;;;7.70;1.00;;;;;;25655132;23;20016;-42
2023/03/06 11:38:51;;;;;;;0.77;0.40;;;7.50;1.00;;;;;;25588907;23;20511;-40
2023/03/06 11:49:14;;;;;;;0.70;0.20;;;7.00;1.00;;;;;;25661598;23;20023;-40
2023/03/06 11:59:42;;;;;;;1.13;0.65;;;7.30;1.00;;;;;;25648416;23;20760;-40
2023/03/06 12:10:07;;;;;;;2.30;1.25;;;7.80;1.00;;;;;;25654151;23;20031;-40
2023/03/06 12:20:32;;;;;;;3.85;1.90;;;7.80;1.00;;;;;;25615243;23;20090;-40
2023/03/06 12:30:44;;;;;;;6.68;1.67;;;8.10;1.00;;;;;;25640633;23;21585;-40
2023/03/06 12:41:06;;;;;;;5.63;2.40;;;8.10;1.00;;;;;;25575090;23;20024;-40
2023/03/06 12:51:12;;;;;;;3.20;1.33;;;7.50;1.00;;;;;;25568452;23;20017;-40
2023/03/06 13:01:29;;;;;;;5.00;2.00;;;7.00;1.00;;;;;;25649244;23;20451;-40
2023/03/06 13:11:43;;;;;;;5.40;2.43;;;7.10;1.00;;;;;;25649278;23;20308;-40
2023/03/06 13:21:59;;;;;;;4.50;2.20;;;7.00;1.00;;;;;;25630845;23;20658;-40
2023/03/06 13:32:00;;;;;;;6.38;2.22;;;7.30;1.00;;;;;;25656397;23;20017;-40
2023/03/06 13:42:01;;;;;;;3.45;1.27;;;7.70;1.00;;;;;;25625958;23;20100;-40
2023/03/06 13:52:16;;;;;;;2.95;1.33;;;7.70;1.00;;;;;;25629831;23;20012;-41
2023/03/06 14:02:28;;;;;;;2.80;1.73;;;7.70;1.00;;;;;;25652227;23;20043;-40
2023/03/06 14:12:47;;;;;;;6.55;2.60;;;7.70;1.00;;;;;;25635665;23;20013;-40
2023/03/06 14:22:48;;;;;;;3.25;1.52;;;7.40;1.00;;;;;;25653283;23;21353;-40
2023/03/06 14:32:53;;;;;;;4.95;2.22;;;7.30;1.00;;;;;;25627238;23;20616;-40
2023/03/06 14:43:10;;;;;;;4.00;1.63;;;7.10;1.00;;;;;;25639131;23;21579;-40
2023/03/06 14:53:16;;;;;;;3.13;1.43;;;6.70;1.00;;;;;;25642227;23;20096;-40
2023/03/06 15:03:23;;;;;;;3.97;1.95;;;6.70;1.00;;;;;;25623284;23;20066;-40
2023/03/06 15:13:26;;;;;;;9.30;4.05;;;6.70;1.00;;;;;;25642533;23;20704;-40
2023/03/06 15:23:42;;;;;;;4.28;1.73;;;6.50;1.00;;;;;;25539813;23;20009;-40
2023/03/06 15:33:44;;;;;;;4.85;1.13;;;6.40;1.00;;;;;;25642871;23;20348;-40
2023/03/06 15:43:45;;;;;;;5.32;1.17;;;6.20;1.00;;;;;;25653071;23;20696;-40
2023/03/06 15:53:46;;;;;;;2.72;1.30;;;6.20;1.00;;;;;;25638979;23;20008;-40
2023/03/06 16:03:47;;;;;;;3.95;1.60;;;6.30;1.00;;;;;;25650812;23;20553;-40
2023/03/06 16:13:49;;;;;;;3.15;2.10;;;6.20;1.00;;;;;;25643318;23;20963;-43
2023/03/06 16:23:50;;;;;;;2.85;1.58;;;5.60;1.00;;;;;;25654575;23;20231;-43
2023/03/06 16:33:53;;;;;;;5.75;2.72;;;5.40;1.00;;;;;;25638188;23;20382;-43
2023/03/06 16:43:54;;;;;;;7.13;3.67;;;5.20;1.00;;;;;;25640221;23;20768;-43
2023/03/06 16:53:55;;;;;;;4.05;2.75;;;5.10;1.00;;;;;;25635892;23;20009;-42
2023/03/06 17:03:59;;;;;;;33.58;13.50;;;5.20;1.00;;;;;;25586303;23;20018;-43
2023/03/06 17:14:03;;;;;;;6.32;2.67;;;5.20;1.00;;;;;;25661465;23;20023;-43
2023/03/06 17:24:10;;;;;;;9.05;4.18;;;5.20;1.00;;;;;;25573293;23;20327;-43
2023/03/06 17:34:31;;;;;;;18.00;7.13;;;5.20;1.00;;;;;;25580910;23;20362;-43
2023/03/06 17:44:52;;;;;;;6.75;3.95;;;5.00;1.00;;;;;;25656237;23;20458;-43
2023/03/06 17:54:54;;;;;;;9.85;5.47;;;4.90;1.00;;;;;;25636338;23;20017;-43
2023/03/06 18:05:16;;;;;;;11.20;6.10;;;4.70;1.00;;;;;;25558360;23;20067;-43
2023/03/06 18:15:39;;;;;;;9.68;4.43;;;4.50;10.20;;;;;;25617779;23;20086;-42
2023/03/06 18:26:22;;;;;;;9.52;5.05;;;4.50;17.30;;;;;;25572082;23;20458;-43
2023/03/06 18:36:36;;;;;;;14.52;7.32;;;4.40;23.40;;;;;;25631299;23;20025;-42
2023/03/06 18:46:57;;;;;;;13.07;6.63;;;4.30;40.40;;;;;;25680006;23;20004;-42
2023/03/06 18:57:18;;;;;;;11.68;6.35;;;4.30;53.70;;;;;;25638226;23;20074;-42
2023/03/06 19:07:26;;;;;;;13.40;6.03;;;4.20;79.00;;;;;;25619427;23;20012;-42
2023/03/06 19:17:50;;;;;;;10.13;5.38;;;4.10;99.40;;;;;;25592496;23;20071;-41
2023/03/06 19:28:06;;;;;;;11.15;7.28;;;4.00;99.90;;;;;;25540875;23;20419;-42
2023/03/06 19:38:27;;;;;;;10.38;6.68;;;4.00;99.90;;;;;;25630862;23;20028;-42
2023/03/06 19:49:04;;;;;;;17.98;7.63;;;4.00;99.90;;;;;;25676572;23;20008;-42
2023/03/06 19:59:25;;;;;;;15.23;9.83;;;3.90;99.90;;;;;;25664286;23;20075;-42
2023/03/06 20:09:47;;;;;;;16.02;9.27;;;4.00;99.90;;;;;;25664382;23;20067;-42
2023/03/06 20:20:09;;;;;;;13.93;9.20;;;4.00;99.90;;;;;;25660990;23;20619;-42
2023/03/06 20:30:30;;;;;;;16.95;8.35;;;4.10;99.90;;;;;;25665371;23;20016;-42
2023/03/06 20:40:54;;;;;;;14.63;8.02;;;4.20;99.90;;;;;;25633014;23;20521;-42
2023/03/06 20:51:15;;;;;;;13.75;5.43;;;4.40;99.90;;;;;;25633770;23;20074;-42
2023/03/06 21:01:21;;;;;;;9.40;5.72;;;4.70;99.90;;;;;;25632442;23;20550;-41
2023/03/06 21:11:23;;;;;;;8.13;4.57;;;4.90;99.90;;;;;;25631297;23;20066;-41
2023/03/06 21:21:30;;;;;;;9.35;4.85;;;5.00;99.90;;;;;;25623516;23;20447;-41
2023/03/06 21:31:32;;;;;;;10.52;4.88;;;5.10;99.90;;;;;;25627906;23;20008;-41
2023/03/06 21:41:33;;;;;;;7.10;3.55;;;5.10;99.90;;;;;;25628089;23;20024;-42
2023/03/06 21:51:34;;;;;;;3.58;1.52;;;5.30;99.90;;;;;;25630222;23;20280;-42
2023/03/06 22:01:36;;;;;;;5.10;1.70;;;5.20;99.90;;;;;;25640050;23;20026;-43
2023/03/06 22:11:37;;;;;;;3.95;2.03;;;5.00;99.90;;;;;;25652326;23;20012;-43
2023/03/06 22:21:38;;;;;;;9.45;1.95;;;5.00;99.90;;;;;;25649682;23;20016;-42
2023/03/06 22:31:39;;;;;;;2.55;1.10;;;4.90;99.90;;;;;;25644254;23;20014;-42
2023/03/06 22:41:40;;;;;;;30.95;2.70;;;4.80;99.90;;;;;;25635497;23;20028;-43
2023/03/06 22:51:42;;;;;;;2.67;1.00;;;4.70;99.90;;;;;;25635106;23;20207;-42
2023/03/06 23:01:44;;;;;;;2.95;0.98;;;4.70;99.90;;;;;;25632219;23;20315;-42
2023/03/06 23:11:46;;;;;;;1.95;1.38;;;4.70;99.90;;;;;;25633838;23;20904;-42
2023/03/06 23:21:47;;;;;;;4.82;1.35;;;4.80;99.90;;;;;;25636886;23;20018;-42
2023/03/06 23:31:48;;;;;;;9.75;2.95;;;4.90;99.90;;;;;;25637699;23;20009;-42
2023/03/06 23:41:49;;;;;;;10.43;2.22;;;5.00;99.90;;;;;;25634458;23;20462;-42
2023/03/06 23:51:50;;;;;;;2.75;1.83;;;5.00;99.90;;;;;;25637326;23;20020;-42
